createdAt,value
2024-03-15T00:00:31.797Z,997.4240117520001
2024-03-15T00:01:31.850Z,997.6271944800001
2024-03-15T00:02:31.772Z,997.525603116
2024-03-15T00:03:31.881Z,997.525603116
2024-03-15T00:04:31.787Z,997.6271944800001
2024-03-15T00:05:31.782Z,997.6271944800001
2024-03-15T00:06:31.873Z,997.4240117520001
2024-03-15T00:07:31.813Z,997.6271944800001
2024-03-15T00:08:31.782Z,997.525603116
2024-03-15T00:09:31.797Z,997.4240117520001
2024-03-15T00:10:31.839Z,997.4240117520001
2024-03-15T00:11:31.812Z,997.3224203880001
2024-03-15T00:12:31.946Z,997.11923766
2024-03-15T00:13:31.835Z,997.3224203880001
2024-03-15T00:14:31.785Z,997.6271944800001
2024-03-15T00:15:31.920Z,997.525603116
2024-03-15T00:16:31.794Z,997.525603116
2024-03-15T00:17:31.839Z,997.4240117520001
2024-03-15T00:18:31.992Z,997.220829024
2024-03-15T00:19:31.903Z,997.525603116
2024-03-15T00:20:31.946Z,997.525603116
2024-03-15T00:21:32.056Z,997.4240117520001
2024-03-15T00:22:31.928Z,997.525603116
2024-03-15T00:23:31.877Z,997.525603116
2024-03-15T00:24:31.923Z,997.3224203880001
2024-03-15T00:25:31.901Z,997.525603116
2024-03-15T00:26:32.723Z,997.4240117520001
2024-03-15T00:27:31.982Z,997.525603116
2024-03-15T00:28:31.961Z,997.220829024
2024-03-15T00:29:31.917Z,997.6271944800001
2024-03-15T00:30:31.926Z,997.525603116
2024-03-15T00:31:31.879Z,997.4240117520001
2024-03-15T00:32:31.915Z,997.4240117520001
2024-03-15T00:33:31.937Z,997.3224203880001
2024-03-15T00:34:31.935Z,997.525603116
2024-03-15T00:35:31.924Z,997.4240117520001
2024-03-15T00:36:32.450Z,997.220829024
2024-03-15T00:37:32.021Z,997.4240117520001
2024-03-15T00:38:31.911Z,997.4240117520001
2024-03-15T00:39:31.943Z,997.3224203880001
2024-03-15T00:40:31.905Z,997.4240117520001
2024-03-15T00:41:31.888Z,997.3224203880001
2024-03-15T00:42:32.025Z,997.6271944800001
2024-03-15T00:43:31.873Z,997.220829024
2024-03-15T00:44:31.891Z,997.4240117520001
2024-03-15T00:45:31.884Z,997.3224203880001
2024-03-15T00:46:31.950Z,997.6271944800001
2024-03-15T00:47:32.045Z,997.3224203880001
2024-03-15T00:48:32.122Z,997.4240117520001
2024-03-15T00:49:31.772Z,997.3224203880001
2024-03-15T00:50:31.837Z,997.3224203880001
2024-03-15T00:51:31.861Z,997.3224203880001
2024-03-15T00:52:31.750Z,997.3224203880001
2024-03-15T00:53:31.978Z,997.4240117520001
2024-03-15T00:54:31.832Z,997.3224203880001
2024-03-15T00:55:32.180Z,997.220829024
2024-03-15T00:56:31.771Z,997.220829024
2024-03-15T00:57:31.834Z,997.11923766
2024-03-15T00:58:31.782Z,997.3224203880001
2024-03-15T00:59:31.793Z,997.3224203880001
2024-03-15T01:00:31.793Z,997.6271944800001
2024-03-15T01:01:31.842Z,997.3224203880001
2024-03-15T01:02:31.868Z,997.11923766
2024-03-15T01:03:31.890Z,997.525603116
2024-03-15T01:04:31.772Z,997.4240117520001
2024-03-15T01:05:31.818Z,997.3224203880001
2024-03-15T01:06:31.859Z,997.4240117520001
2024-03-15T01:07:31.857Z,997.3224203880001
2024-03-15T01:08:31.812Z,997.220829024
2024-03-15T01:09:31.859Z,997.3224203880001
2024-03-15T01:10:31.836Z,997.525603116
2024-03-15T01:11:31.811Z,997.3224203880001
2024-03-15T01:12:31.844Z,997.3224203880001
2024-03-15T01:13:31.812Z,997.3224203880001
2024-03-15T01:14:31.754Z,997.3224203880001
2024-03-15T01:15:31.823Z,997.220829024
2024-03-15T01:16:31.799Z,997.3224203880001
2024-03-15T01:17:31.919Z,997.3224203880001
2024-03-15T01:18:31.980Z,997.11923766
2024-03-15T01:19:31.830Z,997.4240117520001
2024-03-15T01:20:31.794Z,997.11923766
2024-03-15T01:21:31.803Z,997.4240117520001
2024-03-15T01:22:31.847Z,997.220829024
2024-03-15T01:23:31.804Z,997.3224203880001
2024-03-15T01:24:31.829Z,997.4240117520001
2024-03-15T01:25:31.767Z,997.11923766
2024-03-15T01:26:31.760Z,997.220829024
2024-03-15T01:27:31.790Z,997.3224203880001
2024-03-15T01:28:31.833Z,997.11923766
2024-03-15T01:29:31.753Z,997.3224203880001
2024-03-15T01:30:31.844Z,997.220829024
2024-03-15T01:31:31.781Z,997.220829024
2024-03-15T01:32:31.848Z,997.220829024
2024-03-15T01:33:31.845Z,997.525603116
2024-03-15T01:34:31.738Z,997.3224203880001
2024-03-15T01:35:31.808Z,997.4240117520001
2024-03-15T01:36:31.813Z,997.525603116
2024-03-15T01:37:31.843Z,997.4240117520001
2024-03-15T01:38:31.769Z,997.3224203880001
2024-03-15T01:39:31.910Z,997.3224203880001
2024-03-15T01:40:31.786Z,997.220829024
2024-03-15T01:41:31.818Z,997.3224203880001
2024-03-15T01:42:31.886Z,997.3224203880001
2024-03-15T01:43:31.820Z,997.3224203880001
2024-03-15T01:44:31.794Z,997.11923766
2024-03-15T01:45:31.796Z,997.220829024
2024-03-15T01:46:31.841Z,997.4240117520001
2024-03-15T01:47:31.847Z,997.0176462960001
2024-03-15T01:48:31.842Z,997.220829024
2024-03-15T01:49:31.793Z,997.3224203880001
2024-03-15T01:50:31.800Z,997.220829024
2024-03-15T01:51:32.118Z,997.4240117520001
2024-03-15T01:52:31.777Z,997.3224203880001
2024-03-15T01:53:31.772Z,997.220829024
2024-03-15T01:54:31.817Z,997.3224203880001
2024-03-15T01:55:31.814Z,997.220829024
2024-03-15T01:56:31.822Z,997.3224203880001
2024-03-15T01:57:31.942Z,997.4240117520001
2024-03-15T01:58:31.775Z,997.3224203880001
2024-03-15T01:59:31.844Z,997.3224203880001
2024-03-15T02:00:32.026Z,997.0176462960001
2024-03-15T02:01:31.868Z,997.220829024
2024-03-15T02:02:31.777Z,997.3224203880001
2024-03-15T02:03:31.803Z,997.11923766
2024-03-15T02:04:31.780Z,997.220829024
2024-03-15T02:05:31.804Z,997.3224203880001
2024-03-15T02:06:31.781Z,997.220829024
2024-03-15T02:07:31.852Z,997.3224203880001
2024-03-15T02:08:31.795Z,997.220829024
2024-03-15T02:09:31.811Z,997.3224203880001
2024-03-15T02:10:31.814Z,997.3224203880001
2024-03-15T02:11:31.795Z,997.11923766
2024-03-15T02:12:31.876Z,997.4240117520001
2024-03-15T02:13:31.819Z,997.3224203880001
2024-03-15T02:14:31.795Z,997.3224203880001
2024-03-15T02:15:31.819Z,997.3224203880001
2024-03-15T02:16:31.780Z,997.220829024
2024-03-15T02:17:31.834Z,997.3224203880001
2024-03-15T02:18:31.866Z,997.3224203880001
2024-03-15T02:19:31.806Z,997.525603116
2024-03-15T02:20:31.775Z,997.3224203880001
2024-03-15T02:21:31.757Z,997.220829024
2024-03-15T02:22:31.791Z,997.0176462960001
2024-03-15T02:23:31.757Z,997.4240117520001
2024-03-15T02:24:31.828Z,997.0176462960001
2024-03-15T02:25:31.834Z,997.3224203880001
2024-03-15T02:26:31.762Z,997.0176462960001
2024-03-15T02:27:31.804Z,997.220829024
2024-03-15T02:28:31.776Z,997.11923766
2024-03-15T02:29:31.777Z,997.220829024
2024-03-15T02:30:31.801Z,997.3224203880001
2024-03-15T02:31:31.773Z,997.11923766
2024-03-15T02:32:31.760Z,997.3224203880001
2024-03-15T02:33:31.857Z,997.11923766
2024-03-15T02:34:31.809Z,997.4240117520001
2024-03-15T02:35:32.890Z,997.3224203880001
2024-03-15T02:36:31.803Z,997.220829024
2024-03-15T02:37:31.762Z,997.4240117520001
2024-03-15T02:38:31.806Z,997.4240117520001
2024-03-15T02:39:31.792Z,997.220829024
2024-03-15T02:40:31.806Z,997.3224203880001
2024-03-15T02:41:31.740Z,997.4240117520001
2024-03-15T02:42:31.789Z,997.3224203880001
2024-03-15T02:43:31.818Z,997.3224203880001
2024-03-15T02:44:31.761Z,997.3224203880001
2024-03-15T02:45:31.765Z,997.11923766
2024-03-15T02:46:31.798Z,997.3224203880001
2024-03-15T02:47:31.784Z,997.220829024
2024-03-15T02:48:31.823Z,997.3224203880001
2024-03-15T02:49:31.813Z,997.3224203880001
2024-03-15T02:50:31.793Z,997.3224203880001
2024-03-15T02:51:31.762Z,997.3224203880001
2024-03-15T02:52:31.793Z,997.220829024
2024-03-15T02:53:31.784Z,997.4240117520001
2024-03-15T02:54:31.796Z,997.3224203880001
2024-03-15T02:55:31.819Z,997.220829024
2024-03-15T02:56:31.745Z,997.11923766
2024-03-15T02:57:31.865Z,997.11923766
2024-03-15T02:58:31.755Z,997.3224203880001
2024-03-15T02:59:31.779Z,997.6271944800001
2024-03-15T03:00:31.777Z,997.4240117520001
2024-03-15T03:01:31.815Z,997.220829024
2024-03-15T03:02:31.857Z,997.220829024
2024-03-15T03:03:31.803Z,997.4240117520001
2024-03-15T03:04:31.744Z,997.3224203880001
2024-03-15T03:05:31.911Z,997.525603116
2024-03-15T03:06:31.888Z,997.3224203880001
2024-03-15T03:07:31.780Z,997.3224203880001
2024-03-15T03:08:31.757Z,997.3224203880001
2024-03-15T03:09:31.793Z,997.4240117520001
2024-03-15T03:10:31.757Z,997.525603116
2024-03-15T03:11:31.724Z,997.3224203880001
2024-03-15T03:12:31.798Z,997.4240117520001
2024-03-15T03:13:31.813Z,997.4240117520001
2024-03-15T03:14:31.763Z,997.6271944800001
2024-03-15T03:15:31.800Z,997.4240117520001
2024-03-15T03:16:31.748Z,997.3224203880001
2024-03-15T03:17:31.791Z,997.4240117520001
2024-03-15T03:18:31.973Z,997.4240117520001
2024-03-15T03:19:31.778Z,997.3224203880001
2024-03-15T03:20:31.737Z,997.3224203880001
2024-03-15T03:21:31.803Z,997.525603116
2024-03-15T03:22:31.768Z,997.4240117520001
2024-03-15T03:23:31.809Z,997.4240117520001
2024-03-15T03:24:31.816Z,997.525603116
2024-03-15T03:25:31.889Z,997.525603116
2024-03-15T03:26:31.862Z,997.3224203880001
2024-03-15T03:27:31.795Z,997.525603116
2024-03-15T03:28:31.764Z,997.4240117520001
2024-03-15T03:29:31.800Z,997.525603116
2024-03-15T03:30:31.812Z,997.220829024
2024-03-15T03:31:31.760Z,997.3224203880001
2024-03-15T03:32:31.812Z,997.3224203880001
2024-03-15T03:33:31.809Z,997.4240117520001
2024-03-15T03:34:31.745Z,997.4240117520001
2024-03-15T03:35:31.780Z,997.525603116
2024-03-15T03:36:31.802Z,997.220829024
2024-03-15T03:37:31.746Z,997.3224203880001
2024-03-15T03:38:31.802Z,997.6271944800001
2024-03-15T03:39:31.817Z,997.525603116
2024-03-15T03:40:31.782Z,997.220829024
2024-03-15T03:41:31.778Z,997.525603116
2024-03-15T03:42:31.751Z,997.525603116
2024-03-15T03:43:31.839Z,997.525603116
2024-03-15T03:44:31.790Z,997.220829024
2024-03-15T03:45:32.093Z,997.4240117520001
2024-03-15T03:46:31.746Z,997.3224203880001
2024-03-15T03:47:31.807Z,997.525603116
2024-03-15T03:48:31.746Z,997.3224203880001
2024-03-15T03:49:31.775Z,997.3224203880001
2024-03-15T03:50:31.778Z,997.4240117520001
2024-03-15T03:51:31.810Z,997.3224203880001
2024-03-15T03:52:31.793Z,997.525603116
2024-03-15T03:53:31.764Z,997.220829024
2024-03-15T03:54:31.865Z,997.3224203880001
2024-03-15T03:55:31.763Z,997.525603116
2024-03-15T03:56:31.701Z,997.525603116
2024-03-15T03:57:42.809Z,997.4240117520001
2024-03-15T03:58:31.762Z,997.4240117520001
2024-03-15T03:59:31.754Z,997.3224203880001
2024-03-15T04:00:31.785Z,997.4240117520001
2024-03-15T04:01:31.826Z,997.4240117520001
2024-03-15T04:02:31.761Z,997.3224203880001
2024-03-15T04:03:31.735Z,997.220829024
2024-03-15T04:04:31.778Z,997.525603116
2024-03-15T04:05:31.786Z,997.220829024
2024-03-15T04:06:31.787Z,997.3224203880001
2024-03-15T04:07:31.894Z,997.525603116
2024-03-15T04:08:31.763Z,997.4240117520001
2024-03-15T04:09:31.797Z,997.4240117520001
2024-03-15T04:10:31.839Z,997.3224203880001
2024-03-15T04:11:31.827Z,997.3224203880001
2024-03-15T04:12:31.800Z,997.4240117520001
2024-03-15T04:13:31.776Z,997.4240117520001
2024-03-15T04:14:32.499Z,997.11923766
2024-03-15T04:15:31.929Z,997.525603116
2024-03-15T04:16:31.779Z,997.4240117520001
2024-03-15T04:17:31.770Z,997.3224203880001
2024-03-15T04:18:31.782Z,997.525603116
2024-03-15T04:19:31.755Z,997.4240117520001
2024-03-15T04:20:31.786Z,997.4240117520001
2024-03-15T04:21:31.763Z,997.4240117520001
2024-03-15T04:22:31.737Z,997.525603116
2024-03-15T04:23:31.782Z,997.4240117520001
2024-03-15T04:24:31.825Z,997.6271944800001
2024-03-15T04:25:31.777Z,997.525603116
2024-03-15T04:26:31.744Z,997.525603116
2024-03-15T04:27:31.793Z,997.4240117520001
2024-03-15T04:28:31.765Z,997.4240117520001
2024-03-15T04:29:31.722Z,997.6271944800001
2024-03-15T04:30:31.839Z,997.4240117520001
2024-03-15T04:31:31.788Z,997.6271944800001
2024-03-15T04:32:31.781Z,997.6271944800001
2024-03-15T04:33:31.840Z,997.525603116
2024-03-15T04:34:31.750Z,997.525603116
2024-03-15T04:35:31.773Z,997.525603116
2024-03-15T04:36:31.984Z,997.525603116
2024-03-15T04:37:31.733Z,997.525603116
2024-03-15T04:38:31.745Z,997.6271944800001
2024-03-15T04:39:31.839Z,997.525603116
2024-03-15T04:40:31.772Z,997.6271944800001
2024-03-15T04:41:31.751Z,997.525603116
2024-03-15T04:42:31.725Z,997.525603116
2024-03-15T04:43:31.732Z,997.4240117520001
2024-03-15T04:44:31.778Z,997.6271944800001
2024-03-15T04:45:31.846Z,997.6271944800001
2024-03-15T04:46:31.762Z,997.525603116
2024-03-15T04:47:31.763Z,997.4240117520001
2024-03-15T04:48:31.818Z,997.6271944800001
2024-03-15T04:49:31.759Z,997.7287858440001
2024-03-15T04:50:31.766Z,997.525603116
2024-03-15T04:51:31.780Z,997.525603116
2024-03-15T04:52:31.730Z,997.525603116
2024-03-15T04:53:31.743Z,997.830377208
2024-03-15T04:54:31.834Z,997.6271944800001
2024-03-15T04:55:32.900Z,997.7287858440001
2024-03-15T04:56:31.757Z,997.7287858440001
2024-03-15T04:57:31.914Z,997.525603116
2024-03-15T04:58:31.790Z,997.6271944800001
2024-03-15T04:59:31.845Z,997.6271944800001
2024-03-15T05:00:31.858Z,997.525603116
2024-03-15T05:01:31.803Z,997.7287858440001
2024-03-15T05:02:31.698Z,997.525603116
2024-03-15T05:03:31.808Z,997.6271944800001
2024-03-15T05:04:31.802Z,997.525603116
2024-03-15T05:05:31.903Z,997.525603116
2024-03-15T05:06:31.889Z,997.7287858440001
2024-03-15T05:07:31.797Z,997.6271944800001
2024-03-15T05:08:31.764Z,997.7287858440001
2024-03-15T05:09:31.843Z,997.525603116
2024-03-15T05:10:31.926Z,997.6271944800001
2024-03-15T05:11:31.789Z,997.6271944800001
2024-03-15T05:12:31.766Z,997.7287858440001
2024-03-15T05:13:31.775Z,997.525603116
2024-03-15T05:14:31.772Z,997.525603116
2024-03-15T05:15:31.839Z,997.4240117520001
2024-03-15T05:16:31.806Z,997.4240117520001
2024-03-15T05:17:31.700Z,997.6271944800001
2024-03-15T05:18:31.771Z,997.7287858440001
2024-03-15T05:19:36.426Z,997.6271944800001
2024-03-15T05:20:31.768Z,997.525603116
2024-03-15T05:21:31.962Z,997.6271944800001
2024-03-15T05:22:31.756Z,997.830377208
2024-03-15T05:23:31.801Z,997.6271944800001
2024-03-15T05:24:31.765Z,997.7287858440001
2024-03-15T05:25:31.772Z,997.7287858440001
2024-03-15T05:26:31.750Z,997.6271944800001
2024-03-15T05:27:31.848Z,997.7287858440001
2024-03-15T05:28:31.776Z,997.525603116
2024-03-15T05:29:31.834Z,997.525603116
2024-03-15T05:30:31.803Z,997.525603116
2024-03-15T05:31:31.768Z,997.6271944800001
2024-03-15T05:32:31.808Z,997.7287858440001
2024-03-15T05:33:31.785Z,997.525603116
2024-03-15T05:34:31.815Z,997.525603116
2024-03-15T05:35:31.755Z,997.525603116
2024-03-15T05:36:31.784Z,997.525603116
2024-03-15T05:37:31.747Z,997.525603116
2024-03-15T05:38:31.782Z,997.6271944800001
2024-03-15T05:39:31.828Z,997.6271944800001
2024-03-15T05:40:31.767Z,997.4240117520001
2024-03-15T05:41:31.777Z,997.6271944800001
2024-03-15T05:42:31.777Z,997.4240117520001
2024-03-15T05:43:31.735Z,997.6271944800001
2024-03-15T05:44:31.732Z,997.525603116
2024-03-15T05:45:31.797Z,997.525603116
2024-03-15T05:46:31.821Z,998.0335599360001
2024-03-15T05:47:31.761Z,997.7287858440001
2024-03-15T05:48:31.822Z,997.6271944800001
2024-03-15T05:49:31.771Z,997.525603116
2024-03-15T05:50:31.806Z,997.7287858440001
2024-03-15T05:51:31.781Z,997.7287858440001
2024-03-15T05:52:31.766Z,997.6271944800001
2024-03-15T05:53:31.750Z,997.7287858440001
2024-03-15T05:54:31.858Z,997.525603116
2024-03-15T05:55:31.834Z,997.4240117520001
2024-03-15T05:56:31.784Z,997.4240117520001
2024-03-15T05:57:31.991Z,997.6271944800001
2024-03-15T05:58:31.795Z,997.525603116
2024-03-15T05:59:31.775Z,997.525603116
2024-03-15T06:00:31.803Z,997.6271944800001
2024-03-15T06:01:31.789Z,997.7287858440001
2024-03-15T06:02:31.811Z,997.6271944800001
2024-03-15T06:03:31.799Z,997.7287858440001
2024-03-15T06:04:31.745Z,997.4240117520001
2024-03-15T06:05:31.752Z,997.525603116
2024-03-15T06:06:31.819Z,997.7287858440001
2024-03-15T06:07:31.730Z,997.6271944800001
2024-03-15T06:08:31.739Z,997.4240117520001
2024-03-15T06:09:31.919Z,997.7287858440001
2024-03-15T06:10:31.787Z,997.6271944800001
2024-03-15T06:11:31.772Z,997.6271944800001
2024-03-15T06:12:31.904Z,997.6271944800001
2024-03-15T06:13:31.718Z,997.4240117520001
2024-03-15T06:14:34.984Z,997.525603116
2024-03-15T06:15:31.811Z,997.525603116
2024-03-15T06:16:31.748Z,997.525603116
2024-03-15T06:17:31.843Z,997.525603116
2024-03-15T06:18:31.889Z,997.3224203880001
2024-03-15T06:19:31.718Z,997.4240117520001
2024-03-15T06:20:31.762Z,997.3224203880001
2024-03-15T06:21:31.909Z,997.525603116
2024-03-15T06:22:31.789Z,997.525603116
2024-03-15T06:23:31.757Z,997.3224203880001
2024-03-15T06:24:31.815Z,997.3224203880001
2024-03-15T06:25:31.795Z,997.525603116
2024-03-15T06:26:31.770Z,997.830377208
2024-03-15T06:27:31.768Z,997.525603116
2024-03-15T06:28:31.737Z,997.830377208
2024-03-15T06:29:31.687Z,997.830377208
2024-03-15T06:30:31.774Z,997.7287858440001
2024-03-15T06:31:31.768Z,997.6271944800001
2024-03-15T06:32:31.787Z,997.830377208
2024-03-15T06:33:31.793Z,997.830377208
2024-03-15T06:34:31.692Z,997.6271944800001
2024-03-15T06:35:31.778Z,997.6271944800001
2024-03-15T06:36:31.815Z,997.7287858440001
2024-03-15T06:37:31.726Z,997.9319685720001
2024-03-15T06:38:31.878Z,997.830377208
2024-03-15T06:39:31.811Z,997.7287858440001
2024-03-15T06:40:31.776Z,997.7287858440001
2024-03-15T06:41:31.669Z,997.525603116
2024-03-15T06:42:31.782Z,997.7287858440001
2024-03-15T06:43:31.761Z,997.9319685720001
2024-03-15T06:44:31.701Z,997.6271944800001
2024-03-15T06:45:31.825Z,997.7287858440001
2024-03-15T06:46:31.737Z,997.7287858440001
2024-03-15T06:47:31.759Z,997.6271944800001
2024-03-15T06:48:31.782Z,997.7287858440001
2024-03-15T06:49:31.761Z,997.830377208
2024-03-15T06:50:31.649Z,997.6271944800001
2024-03-15T06:51:31.809Z,997.9319685720001
2024-03-15T06:52:31.756Z,997.830377208
2024-03-15T06:53:31.753Z,997.830377208
2024-03-15T06:54:31.749Z,997.9319685720001
2024-03-15T06:55:31.730Z,997.830377208
2024-03-15T06:56:31.712Z,997.9319685720001
2024-03-15T06:57:31.896Z,997.830377208
2024-03-15T06:58:31.821Z,997.7287858440001
2024-03-15T06:59:31.788Z,997.6271944800001
2024-03-15T07:00:31.870Z,997.9319685720001
2024-03-15T07:01:31.829Z,997.7287858440001
2024-03-15T07:02:31.834Z,997.9319685720001
2024-03-15T07:03:31.726Z,997.830377208
2024-03-15T07:04:31.762Z,997.9319685720001
2024-03-15T07:05:31.809Z,997.9319685720001
2024-03-15T07:06:31.846Z,997.830377208
2024-03-15T07:07:31.779Z,997.9319685720001
2024-03-15T07:08:31.769Z,997.830377208
2024-03-15T07:09:31.799Z,998.0335599360001
2024-03-15T07:10:31.698Z,998.2367426640001
2024-03-15T07:11:31.774Z,997.9319685720001
2024-03-15T07:12:31.773Z,998.1351513
2024-03-15T07:13:31.753Z,997.9319685720001
2024-03-15T07:14:31.708Z,997.9319685720001
2024-03-15T07:15:31.801Z,998.1351513
2024-03-15T07:16:31.790Z,998.0335599360001
2024-03-15T07:17:31.852Z,997.9319685720001
2024-03-15T07:18:31.788Z,997.830377208
2024-03-15T07:19:31.856Z,997.830377208
2024-03-15T07:20:31.857Z,997.830377208
2024-03-15T07:21:31.792Z,998.0335599360001
2024-03-15T07:22:32.099Z,998.0335599360001
2024-03-15T07:23:31.701Z,998.0335599360001
2024-03-15T07:24:31.786Z,997.9319685720001
2024-03-15T07:25:31.684Z,998.0335599360001
2024-03-15T07:26:31.687Z,997.9319685720001
2024-03-15T07:27:31.886Z,997.7287858440001
2024-03-15T07:28:31.787Z,998.0335599360001
2024-03-15T07:29:31.772Z,998.0335599360001
2024-03-15T07:30:31.728Z,997.7287858440001
2024-03-15T07:31:31.835Z,997.830377208
2024-03-15T07:32:31.996Z,997.830377208
2024-03-15T07:33:31.895Z,997.9319685720001
2024-03-15T07:34:31.668Z,997.830377208
2024-03-15T07:35:31.757Z,997.9319685720001
2024-03-15T07:36:31.794Z,997.7287858440001
2024-03-15T07:37:31.722Z,997.830377208
2024-03-15T07:38:31.644Z,997.9319685720001
2024-03-15T07:39:31.789Z,997.9319685720001
2024-03-15T07:40:31.781Z,997.830377208
2024-03-15T07:41:31.826Z,998.0335599360001
2024-03-15T07:42:31.767Z,997.9319685720001
2024-03-15T07:43:31.778Z,997.830377208
2024-03-15T07:44:31.747Z,997.830377208
2024-03-15T07:45:31.874Z,997.830377208
2024-03-15T07:46:31.657Z,997.6271944800001
2024-03-15T07:47:31.812Z,997.7287858440001
2024-03-15T07:48:31.757Z,997.830377208
2024-03-15T07:49:31.842Z,997.830377208
2024-03-15T07:50:31.668Z,997.830377208
2024-03-15T07:51:31.892Z,997.9319685720001
2024-03-15T07:52:31.761Z,997.830377208
2024-03-15T07:53:31.728Z,997.9319685720001
2024-03-15T07:54:31.749Z,997.7287858440001
2024-03-15T07:55:31.786Z,997.830377208
2024-03-15T07:56:31.764Z,997.9319685720001
2024-03-15T07:57:31.820Z,997.7287858440001
2024-03-15T07:58:31.630Z,997.830377208
2024-03-15T07:59:31.785Z,997.6271944800001
2024-03-15T08:00:31.827Z,997.830377208
2024-03-15T08:01:31.825Z,997.830377208
2024-03-15T08:02:31.700Z,997.7287858440001
2024-03-15T08:03:31.770Z,997.7287858440001
2024-03-15T08:04:32.911Z,997.830377208
2024-03-15T08:05:31.716Z,997.830377208
2024-03-15T08:06:31.655Z,997.6271944800001
2024-03-15T08:07:31.756Z,997.7287858440001
2024-03-15T08:08:31.739Z,997.830377208
2024-03-15T08:09:31.753Z,997.830377208
2024-03-15T08:10:31.649Z,997.7287858440001
2024-03-15T08:11:31.773Z,997.830377208
2024-03-15T08:12:31.834Z,997.7287858440001
2024-03-15T08:13:31.669Z,997.9319685720001
2024-03-15T08:14:31.710Z,997.830377208
2024-03-15T08:15:31.765Z,997.9319685720001
2024-03-15T08:16:31.835Z,997.830377208
2024-03-15T08:17:31.835Z,997.830377208
2024-03-15T08:18:31.815Z,997.9319685720001
2024-03-15T08:19:31.742Z,997.830377208
2024-03-15T08:20:31.843Z,997.830377208
2024-03-15T08:21:31.808Z,997.830377208
2024-03-15T08:22:31.729Z,997.525603116
2024-03-15T08:23:31.793Z,997.830377208
2024-03-15T08:24:31.770Z,997.6271944800001
2024-03-15T08:25:31.787Z,997.525603116
2024-03-15T08:26:31.551Z,997.830377208
2024-03-15T08:27:31.742Z,997.830377208
2024-03-15T08:28:31.779Z,997.830377208
2024-03-15T08:29:31.802Z,997.525603116
2024-03-15T08:30:31.801Z,997.7287858440001
2024-03-15T08:31:31.796Z,997.6271944800001
2024-03-15T08:32:31.773Z,997.525603116
2024-03-15T08:33:31.808Z,997.9319685720001
2024-03-15T08:34:31.687Z,997.6271944800001
2024-03-15T08:35:31.749Z,997.7287858440001
2024-03-15T08:36:31.808Z,997.830377208
2024-03-15T08:37:31.750Z,997.6271944800001
2024-03-15T08:38:31.692Z,997.7287858440001
2024-03-15T08:39:31.789Z,997.7287858440001
2024-03-15T08:40:31.763Z,997.830377208
2024-03-15T08:41:31.718Z,997.830377208
2024-03-15T08:42:31.650Z,997.6271944800001
2024-03-15T08:43:31.721Z,997.6271944800001
2024-03-15T08:44:31.712Z,997.830377208
2024-03-15T08:45:31.774Z,997.7287858440001
2024-03-15T08:46:32.762Z,997.525603116
2024-03-15T08:47:38.320Z,997.6271944800001
2024-03-15T08:48:31.961Z,997.7287858440001
2024-03-15T08:49:31.827Z,997.7287858440001
2024-03-15T08:50:31.528Z,997.7287858440001
2024-03-15T08:51:31.969Z,997.830377208
2024-03-15T08:52:31.723Z,997.830377208
2024-03-15T08:53:31.748Z,997.525603116
2024-03-15T08:54:31.571Z,997.6271944800001
2024-03-15T08:55:31.828Z,997.7287858440001
2024-03-15T08:56:31.719Z,997.6271944800001
2024-03-15T08:57:31.757Z,997.6271944800001
2024-03-15T08:58:31.575Z,997.525603116
2024-03-15T08:59:31.774Z,997.6271944800001
2024-03-15T09:00:31.790Z,997.6271944800001
2024-03-15T09:01:31.728Z,997.4240117520001
2024-03-15T09:02:31.639Z,997.4240117520001
2024-03-15T09:03:32.551Z,997.7287858440001
2024-03-15T09:04:31.837Z,997.6271944800001
2024-03-15T09:05:31.760Z,997.6271944800001
2024-03-15T09:06:31.565Z,997.6271944800001
2024-03-15T09:07:31.719Z,997.525603116
2024-03-15T09:08:31.686Z,997.6271944800001
2024-03-15T09:09:31.817Z,997.830377208
2024-03-15T09:10:31.517Z,997.830377208
2024-03-15T09:11:31.795Z,997.7287858440001
2024-03-15T09:12:31.722Z,997.830377208
2024-03-15T09:13:34.261Z,997.6271944800001
2024-03-15T09:14:31.483Z,997.525603116
2024-03-15T09:15:31.802Z,997.830377208
2024-03-15T09:16:31.751Z,997.7287858440001
2024-03-15T09:17:31.782Z,997.6271944800001
2024-03-15T09:18:31.673Z,997.7287858440001
2024-03-15T09:19:31.752Z,997.6271944800001
2024-03-15T09:20:31.732Z,997.6271944800001
2024-03-15T09:21:31.763Z,997.6271944800001
2024-03-15T09:22:31.507Z,997.830377208
2024-03-15T09:23:31.696Z,997.525603116
2024-03-15T09:24:31.798Z,997.6271944800001
2024-03-15T09:25:31.831Z,997.525603116
2024-03-15T09:26:31.487Z,997.6271944800001
2024-03-15T09:27:33.204Z,997.6271944800001
2024-03-15T09:28:33.483Z,997.3224203880001
2024-03-15T09:29:31.763Z,997.830377208
2024-03-15T09:30:31.577Z,997.6271944800001
2024-03-15T09:32:31.913Z,997.4240117520001
2024-03-15T09:33:31.746Z,997.525603116
2024-03-15T09:34:31.901Z,997.7287858440001
2024-03-15T09:35:32.023Z,997.525603116
2024-03-15T09:36:31.727Z,997.525603116
2024-03-15T09:37:31.795Z,997.6271944800001
2024-03-15T09:38:31.521Z,997.830377208
2024-03-15T09:39:31.767Z,997.7287858440001